sensor_id;sensor_type;location;lat;lon;timestamp;pressure;altitude;pressure_sealevel;temperature;humidity
76046;BME280;64741;41.730;44.788;2023-08-08T00:00:58;985.8;;;32.1;44.6
76046;BME280;64741;41.730;44.788;2023-08-08T00:05:52;985.8;;;32.1;44.6
76046;BME280;64741;41.730;44.788;2023-08-08T00:10:46;985.8;;;32.1;44.6
76046;BME280;64741;41.730;44.788;2023-08-08T00:15:58;985.8;;;32.1;44.6
76046;BME280;64741;41.730;44.788;2023-08-08T00:20:58;985.8;;;32.1;44.5
76046;BME280;64741;41.730;44.788;2023-08-08T00:25:52;985.8;;;32.1;44.5
76046;BME280;64741;41.730;44.788;2023-08-08T00:30:58;985.8;;;32.1;44.5
76046;BME280;64741;41.730;44.788;2023-08-08T00:35:58;985.8;;;32.1;44.4
76046;BME280;64741;41.730;44.788;2023-08-08T00:40:58;985.8;;;32.1;44.4
76046;BME280;64741;41.730;44.788;2023-08-08T00:45:54;985.8;;;32;44.4
76046;BME280;64741;41.730;44.788;2023-08-08T00:50:58;985.8;;;32;44.4
76046;BME280;64741;41.730;44.788;2023-08-08T00:55:24;985.8;;;32;44.4
76046;BME280;64741;41.730;44.788;2023-08-08T01:00:54;985.7;;;32;44.4
76046;BME280;64741;41.730;44.788;2023-08-08T01:05:59;985.7;;;32;44.3
76046;BME280;64741;41.730;44.788;2023-08-08T01:10:52;985.8;;;32;44.4
76046;BME280;64741;41.730;44.788;2023-08-08T01:15:58;985.8;;;31.9;44.5
76046;BME280;64741;41.730;44.788;2023-08-08T01:20:44;985.8;;;31.9;44.4
76046;BME280;64741;41.730;44.788;2023-08-08T01:25:50;985.8;;;31.9;44.4
76046;BME280;64741;41.730;44.788;2023-08-08T01:30:58;985.8;;;31.9;44.4
76046;BME280;64741;41.730;44.788;2023-08-08T01:35:48;985.9;;;31.9;44.4
76046;BME280;64741;41.730;44.788;2023-08-08T01:40:58;985.9;;;31.9;44.3
76046;BME280;64741;41.730;44.788;2023-08-08T01:45:52;985.9;;;31.9;44.5
76046;BME280;64741;41.730;44.788;2023-08-08T01:50:58;986;;;31.8;44.5
76046;BME280;64741;41.730;44.788;2023-08-08T01:55:54;986.1;;;31.8;44.7
76046;BME280;64741;41.730;44.788;2023-08-08T02:00:52;986.1;;;31.6;45.1
76046;BME280;64741;41.730;44.788;2023-08-08T02:05:58;986.1;;;31.5;45.2
76046;BME280;64741;41.730;44.788;2023-08-08T02:10:58;986.1;;;31.4;45.2
76046;BME280;64741;41.730;44.788;2023-08-08T02:15:58;986.1;;;31.4;45.3
76046;BME280;64741;41.730;44.788;2023-08-08T02:20:54;986.2;;;31.4;45.3
76046;BME280;64741;41.730;44.788;2023-08-08T02:25:58;986.1;;;31.4;45.3
76046;BME280;64741;41.730;44.788;2023-08-08T02:30:59;986.2;;;31.4;45.2
76046;BME280;64741;41.730;44.788;2023-08-08T02:35:50;986.2;;;31.4;45.3
76046;BME280;64741;41.730;44.788;2023-08-08T02:40:54;986.2;;;31.3;45.3
76046;BME280;64741;41.730;44.788;2023-08-08T02:45:58;986.2;;;31.3;45.3
76046;BME280;64741;41.730;44.788;2023-08-08T02:50:56;986.2;;;31.3;45.1
76046;BME280;64741;41.730;44.788;2023-08-08T02:55:54;986.2;;;31.3;45.1
76046;BME280;64741;41.730;44.788;2023-08-08T03:00:58;986.3;;;31.3;45.1
76046;BME280;64741;41.730;44.788;2023-08-08T03:05:58;986.4;;;31.3;45
76046;BME280;64741;41.730;44.788;2023-08-08T03:10:58;986.4;;;31.2;45
76046;BME280;64741;41.730;44.788;2023-08-08T03:15:54;986.3;;;31.2;44.9
76046;BME280;64741;41.730;44.788;2023-08-08T03:20:54;986.4;;;31.2;44.8
76046;BME280;64741;41.730;44.788;2023-08-08T03:25:54;986.4;;;31.2;44.9
76046;BME280;64741;41.730;44.788;2023-08-08T03:30:54;986.4;;;31.2;44.9
76046;BME280;64741;41.730;44.788;2023-08-08T03:35:58;986.4;;;31.2;44.9
76046;BME280;64741;41.730;44.788;2023-08-08T03:40:52;986.4;;;31.1;44.8
76046;BME280;64741;41.730;44.788;2023-08-08T03:45:58;986.4;;;31.1;44.8
76046;BME280;64741;41.730;44.788;2023-08-08T03:50:54;986.4;;;31.1;44.7
76046;BME280;64741;41.730;44.788;2023-08-08T03:55:52;986.4;;;31.1;44.7
76046;BME280;64741;41.730;44.788;2023-08-08T04:00:56;986.4;;;31.1;44.6
76046;BME280;64741;41.730;44.788;2023-08-08T04:05:54;986.4;;;31;44.6
76046;BME280;64741;41.730;44.788;2023-08-08T04:10:58;986.5;;;31.1;44.6
76046;BME280;64741;41.730;44.788;2023-08-08T04:15:18;986.5;;;31;44.5
76046;BME280;64741;41.730;44.788;2023-08-08T04:20:52;986.4;;;31;44.4
76046;BME280;64741;41.730;44.788;2023-08-08T07:25:58;985.3;;;30.8;44.8
76046;BME280;64741;41.730;44.788;2023-08-08T07:30:58;985.3;;;31;44.4
76046;BME280;64741;41.730;44.788;2023-08-08T07:35:58;985.2;;;31.3;43.8
76046;BME280;64741;41.730;44.788;2023-08-08T07:40:54;985.2;;;31.5;43.3
76046;BME280;64741;41.730;44.788;2023-08-08T07:45:54;985.1;;;31.7;43
76046;BME280;64741;41.730;44.788;2023-08-08T07:50:44;985;;;31.8;42.6
76046;BME280;64741;41.730;44.788;2023-08-08T07:55:54;984.9;;;31.9;41.9
76046;BME280;64741;41.730;44.788;2023-08-08T08:00:58;984.9;;;32;41.4
76046;BME280;64741;41.730;44.788;2023-08-08T08:05:52;984.8;;;32;40.9
76046;BME280;64741;41.730;44.788;2023-08-08T08:10:58;984.8;;;32.1;40.1
76046;BME280;64741;41.730;44.788;2023-08-08T08:15:54;984.7;;;32.1;39.8
76046;BME280;64741;41.730;44.788;2023-08-08T08:20:52;984.7;;;32.1;39.1
76046;BME280;64741;41.730;44.788;2023-08-08T08:25:56;984.6;;;32.1;39.5
76046;BME280;64741;41.730;44.788;2023-08-08T08:30:54;984.6;;;32.2;39.8
76046;BME280;64741;41.730;44.788;2023-08-08T08:35:58;984.5;;;32.2;40.1
76046;BME280;64741;41.730;44.788;2023-08-08T08:40:52;984.5;;;32.2;40.3
76046;BME280;64741;41.730;44.788;2023-08-08T08:45:53;984.4;;;32.3;40.5
76046;BME280;64741;41.730;44.788;2023-08-08T08:50:52;984.4;;;32.3;40.7
76046;BME280;64741;41.730;44.788;2023-08-08T08:55:53;984.3;;;32.3;40.8
76046;BME280;64741;41.730;44.788;2023-08-08T09:00:58;984.3;;;32.4;40.9
76046;BME280;64741;41.730;44.788;2023-08-08T09:05:58;984.3;;;32.4;40.9
76046;BME280;64741;41.730;44.788;2023-08-08T09:10:58;984.3;;;32.4;40.6
76046;BME280;64741;41.730;44.788;2023-08-08T09:15:52;984.2;;;32.5;40
76046;BME280;64741;41.730;44.788;2023-08-08T09:20:58;984.2;;;32.5;39.4
76046;BME280;64741;41.730;44.788;2023-08-08T09:25:58;984.1;;;32.5;38.8
76046;BME280;64741;41.730;44.788;2023-08-08T09:30:36;984.1;;;32.4;38.6
76046;BME280;64741;41.730;44.788;2023-08-08T09:35:54;984;;;32.4;38.1
76046;BME280;64741;41.730;44.788;2023-08-08T09:40:56;983.9;;;32.4;37.4
76046;BME280;64741;41.730;44.788;2023-08-08T09:45:56;983.8;;;32.4;36.8
76046;BME280;64741;41.730;44.788;2023-08-08T09:50:52;983.7;;;32.4;37.2
76046;BME280;64741;41.730;44.788;2023-08-08T09:55:58;983.7;;;32.4;37.8
76046;BME280;64741;41.730;44.788;2023-08-08T10:00:58;983.7;;;32.4;38.4
76046;BME280;64741;41.730;44.788;2023-08-08T10:05:58;983.7;;;32.4;38.7
76046;BME280;64741;41.730;44.788;2023-08-08T10:10:54;983.7;;;32.5;39
76046;BME280;64741;41.730;44.788;2023-08-08T10:15:53;983.7;;;32.5;39.2
76046;BME280;64741;41.730;44.788;2023-08-08T10:20:58;983.6;;;32.5;39.3
76046;BME280;64741;41.730;44.788;2023-08-08T10:25:54;983.6;;;32.5;39.4
76046;BME280;64741;41.730;44.788;2023-08-08T10:31:01;983.6;;;32.5;39.6
76046;BME280;64741;41.730;44.788;2023-08-08T10:35:54;983.6;;;32.6;39.6
76046;BME280;64741;41.730;44.788;2023-08-08T10:40:58;983.6;;;32.6;39.6
76046;BME280;64741;41.730;44.788;2023-08-08T10:46:00;983.6;;;32.6;39.6
76046;BME280;64741;41.730;44.788;2023-08-08T10:50:58;983.5;;;32.6;39.6
76046;BME280;64741;41.730;44.788;2023-08-08T10:56:00;983.5;;;32.6;39.6
76046;BME280;64741;41.730;44.788;2023-08-08T11:00:54;983.6;;;32.6;39.5
76046;BME280;64741;41.730;44.788;2023-08-08T11:05:58;983.5;;;32.7;39.4
76046;BME280;64741;41.730;44.788;2023-08-08T11:10:53;983.5;;;32.7;39.3
76046;BME280;64741;41.730;44.788;2023-08-08T11:15:58;983.5;;;32.7;39.2
76046;BME280;64741;41.730;44.788;2023-08-08T11:20:54;983.5;;;32.7;39.2
76046;BME280;64741;41.730;44.788;2023-08-08T11:25:52;983.5;;;32.7;39.1
76046;BME280;64741;41.730;44.788;2023-08-08T11:30:58;983.5;;;32.7;39.1
76046;BME280;64741;41.730;44.788;2023-08-08T11:35:58;983.4;;;32.7;39.2
76046;BME280;64741;41.730;44.788;2023-08-08T11:40:58;983.3;;;32.8;39.2
76046;BME280;64741;41.730;44.788;2023-08-08T11:45:54;983.2;;;32.8;39.2
76046;BME280;64741;41.730;44.788;2023-08-08T11:50:48;983.1;;;32.8;39.3
76046;BME280;64741;41.730;44.788;2023-08-08T11:55:59;983.1;;;32.8;39.5
76046;BME280;64741;41.730;44.788;2023-08-08T12:00:52;983;;;32.8;39.6
76046;BME280;64741;41.730;44.788;2023-08-08T12:05:54;983;;;32.8;39.7
76046;BME280;64741;41.730;44.788;2023-08-08T12:11:00;983;;;32.9;39.8
76046;BME280;64741;41.730;44.788;2023-08-08T12:15:58;983;;;32.9;39.7
76046;BME280;64741;41.730;44.788;2023-08-08T12:20:44;982.9;;;32.9;39.6
76046;BME280;64741;41.730;44.788;2023-08-08T12:25:58;982.9;;;32.9;39.7
76046;BME280;64741;41.730;44.788;2023-08-08T12:30:58;982.9;;;32.9;39.8
76046;BME280;64741;41.730;44.788;2023-08-08T12:35:58;982.9;;;32.9;39.8
76046;BME280;64741;41.730;44.788;2023-08-08T12:40:54;982.9;;;32.9;39.8
76046;BME280;64741;41.730;44.788;2023-08-08T12:45:52;982.8;;;32.9;39.9
76046;BME280;64741;41.730;44.788;2023-08-08T12:50:58;982.8;;;33;40
76046;BME280;64741;41.730;44.788;2023-08-08T12:55:54;982.7;;;33;40
76046;BME280;64741;41.730;44.788;2023-08-08T13:00:58;982.8;;;33;40
76046;BME280;64741;41.730;44.788;2023-08-08T13:05:52;982.8;;;33;40.1
76046;BME280;64741;41.730;44.788;2023-08-08T13:10:50;982.8;;;33;40.1
76046;BME280;64741;41.730;44.788;2023-08-08T13:15:50;982.8;;;33;40.1
76046;BME280;64741;41.730;44.788;2023-08-08T13:20:50;982.8;;;33;40.1
76046;BME280;64741;41.730;44.788;2023-08-08T13:25:56;982.8;;;33;40
76046;BME280;64741;41.730;44.788;2023-08-08T13:30:56;982.8;;;33.1;40
76046;BME280;64741;41.730;44.788;2023-08-08T13:35:56;982.8;;;33;40.1
76046;BME280;64741;41.730;44.788;2023-08-08T13:40:50;982.9;;;33.1;40.2
76046;BME280;64741;41.730;44.788;2023-08-08T13:45:56;982.9;;;33.1;40.2
76046;BME280;64741;41.730;44.788;2023-08-08T13:50:56;982.8;;;33.1;41
76046;BME280;64741;41.730;44.788;2023-08-08T13:55:50;982.8;;;33.1;41.5
76046;BME280;64741;41.730;44.788;2023-08-08T16:50:58;982.8;;;33.1;41
76046;BME280;64741;41.730;44.788;2023-08-08T16:55:52;984.4;;;33.1;39.9
76046;BME280;64741;41.730;44.788;2023-08-08T17:00:58;984.5;;;33.1;39.9
76046;BME280;64741;41.730;44.788;2023-08-08T17:05:54;984.5;;;33.2;39.8
76046;BME280;64741;41.730;44.788;2023-08-08T17:10:52;984.6;;;33.2;40
76046;BME280;64741;41.730;44.788;2023-08-08T17:16:00;984.7;;;33.3;40.1
76046;BME280;64741;41.730;44.788;2023-08-08T17:20:54;984.8;;;33.3;40.2
76046;BME280;64741;41.730;44.788;2023-08-08T17:25:58;984.9;;;33.3;40.4
76046;BME280;64741;41.730;44.788;2023-08-08T17:30:53;984.9;;;33.3;40.5
76046;BME280;64741;41.730;44.788;2023-08-08T17:35:52;985;;;33.3;40.8
76046;BME280;64741;41.730;44.788;2023-08-08T17:40:51;985;;;33.3;40.9
76046;BME280;64741;41.730;44.788;2023-08-08T17:45:38;985.1;;;33.3;40.8
76046;BME280;64741;41.730;44.788;2023-08-08T17:50:56;985.1;;;33.3;40.9
76046;BME280;64741;41.730;44.788;2023-08-08T17:55:59;985.2;;;33.3;41
76046;BME280;64741;41.730;44.788;2023-08-08T18:00:59;985.2;;;33.3;41.1
76046;BME280;64741;41.730;44.788;2023-08-08T18:05:53;985.2;;;33.3;41
76046;BME280;64741;41.730;44.788;2023-08-08T18:10:59;985.3;;;33.3;40.4
76046;BME280;64741;41.730;44.788;2023-08-08T18:15:59;985.3;;;33.2;39.8
76046;BME280;64741;41.730;44.788;2023-08-08T18:20:53;985.3;;;33.2;39.4
76046;BME280;64741;41.730;44.788;2023-08-08T18:25:54;985.4;;;33.1;38.8
76046;BME280;64741;41.730;44.788;2023-08-08T18:30:59;985.4;;;33.1;38.2
76046;BME280;64741;41.730;44.788;2023-08-08T18:35:59;985.4;;;33.1;37.5
76046;BME280;64741;41.730;44.788;2023-08-08T18:40:52;985.5;;;33;37.6
76046;BME280;64741;41.730;44.788;2023-08-08T18:45:58;985.5;;;33;38.2
76046;BME280;64741;41.730;44.788;2023-08-08T18:50:59;985.6;;;33.1;38.6
76046;BME280;64741;41.730;44.788;2023-08-08T18:55:58;985.6;;;33.1;38.8
76046;BME280;64741;41.730;44.788;2023-08-08T19:00:54;985.6;;;33.1;39.1
76046;BME280;64741;41.730;44.788;2023-08-08T19:05:53;985.7;;;33.1;39.3
76046;BME280;64741;41.730;44.788;2023-08-08T19:10:59;985.7;;;33.1;39.5
76046;BME280;64741;41.730;44.788;2023-08-08T19:15:55;985.7;;;33.1;39.7
76046;BME280;64741;41.730;44.788;2023-08-08T19:20:59;985.7;;;33.1;39.9
76046;BME280;64741;41.730;44.788;2023-08-08T19:25:57;985.8;;;33.1;40.1
76046;BME280;64741;41.730;44.788;2023-08-08T19:30:27;985.8;;;33.1;40.2
76046;BME280;64741;41.730;44.788;2023-08-08T19:35:58;985.9;;;33.1;40.4
76046;BME280;64741;41.730;44.788;2023-08-08T19:40:59;986;;;33.1;40.8
76046;BME280;64741;41.730;44.788;2023-08-08T19:46:01;986.1;;;33.2;41
76046;BME280;64741;41.730;44.788;2023-08-08T19:50:55;986.1;;;33.2;41.2
76046;BME280;64741;41.730;44.788;2023-08-08T19:55:58;986.2;;;33.2;41
76046;BME280;64741;41.730;44.788;2023-08-08T20:00:53;986.2;;;33.2;41.2
76046;BME280;64741;41.730;44.788;2023-08-08T20:05:59;986.2;;;33.2;41.3
76046;BME280;64741;41.730;44.788;2023-08-08T20:10:55;986.3;;;33.2;41.5
76046;BME280;64741;41.730;44.788;2023-08-08T20:15:53;986.3;;;33.2;41.8
76046;BME280;64741;41.730;44.788;2023-08-08T20:20:59;986.3;;;33.2;42
76046;BME280;64741;41.730;44.788;2023-08-08T20:25:59;986.3;;;33.2;42
76046;BME280;64741;41.730;44.788;2023-08-08T20:30:59;986.3;;;33.2;42.1
76046;BME280;64741;41.730;44.788;2023-08-08T20:35:55;986.3;;;33.2;42.1
76046;BME280;64741;41.730;44.788;2023-08-08T20:40:17;986.3;;;33.1;42
76046;BME280;64741;41.730;44.788;2023-08-08T20:46:01;986.4;;;33.1;41.9
76046;BME280;64741;41.730;44.788;2023-08-08T20:50:55;986.4;;;33.1;42.1
76046;BME280;64741;41.730;44.788;2023-08-08T20:55:55;986.4;;;33.1;42.2
76046;BME280;64741;41.730;44.788;2023-08-08T21:00:59;986.4;;;33.2;42.3
76046;BME280;64741;41.730;44.788;2023-08-08T21:05:59;986.4;;;33.1;42.4
76046;BME280;64741;41.730;44.788;2023-08-08T21:10:55;986.4;;;33.1;42.3
76046;BME280;64741;41.730;44.788;2023-08-08T21:15:59;986.5;;;33.1;42.2
76046;BME280;64741;41.730;44.788;2023-08-08T21:20:59;986.5;;;33;42
76046;BME280;64741;41.730;44.788;2023-08-08T21:25:59;986.5;;;33;42.1
76046;BME280;64741;41.730;44.788;2023-08-08T21:30:55;986.5;;;33;42.1
76046;BME280;64741;41.730;44.788;2023-08-08T21:35:55;986.5;;;33;42.3
76046;BME280;64741;41.730;44.788;2023-08-08T21:40:55;986.5;;;33;42.4
76046;BME280;64741;41.730;44.788;2023-08-08T21:45:21;986.6;;;33;42.5
76046;BME280;64741;41.730;44.788;2023-08-08T21:50:59;986.6;;;33.1;42.4
76046;BME280;64741;41.730;44.788;2023-08-08T21:55:53;986.6;;;33.1;42.3
76046;BME280;64741;41.730;44.788;2023-08-08T22:01:01;986.7;;;33.1;42.4
76046;BME280;64741;41.730;44.788;2023-08-08T22:05:55;986.7;;;33;42.9
76046;BME280;64741;41.730;44.788;2023-08-08T22:10:53;986.7;;;32.9;42.9
76046;BME280;64741;41.730;44.788;2023-08-08T22:15:59;986.7;;;32.9;43
76046;BME280;64741;41.730;44.788;2023-08-08T22:20:55;986.7;;;32.8;43.2
76046;BME280;64741;41.730;44.788;2023-08-08T22:26:01;986.7;;;32.8;43.2
76046;BME280;64741;41.730;44.788;2023-08-08T22:30:53;986.7;;;32.8;43.5
76046;BME280;64741;41.730;44.788;2023-08-08T22:35:53;986.8;;;32.7;43.6
76046;BME280;64741;41.730;44.788;2023-08-08T22:40:55;986.8;;;32.7;43.6
76046;BME280;64741;41.730;44.788;2023-08-08T22:45:53;986.8;;;32.7;43.5
76046;BME280;64741;41.730;44.788;2023-08-08T22:50:59;986.8;;;32.7;43.4
76046;BME280;64741;41.730;44.788;2023-08-08T22:55:59;986.8;;;32.7;43.5
76046;BME280;64741;41.730;44.788;2023-08-08T23:01:01;986.9;;;32.6;43.9
76046;BME280;64741;41.730;44.788;2023-08-08T23:05:53;986.9;;;32.6;44
76046;BME280;64741;41.730;44.788;2023-08-08T23:11:01;986.9;;;32.6;44.4
76046;BME280;64741;41.730;44.788;2023-08-08T23:15:59;986.9;;;32.5;44.2
76046;BME280;64741;41.730;44.788;2023-08-08T23:20:53;986.9;;;32.5;44.2
76046;BME280;64741;41.730;44.788;2023-08-08T23:25:55;986.9;;;32.5;44.3
76046;BME280;64741;41.730;44.788;2023-08-08T23:30:59;986.9;;;32.5;44.4
76046;BME280;64741;41.730;44.788;2023-08-08T23:35:59;987;;;32.5;44.4
76046;BME280;64741;41.730;44.788;2023-08-08T23:40:53;987;;;32.4;44.4
76046;BME280;64741;41.730;44.788;2023-08-08T23:45:57;987;;;32.4;44.4
76046;BME280;64741;41.730;44.788;2023-08-08T23:50:57;987;;;32.4;44.3
76046;BME280;64741;41.730;44.788;2023-08-08T23:55:57;987;;;32.4;44.2
